createdAt,value
2018-06-13T00:01:18.394Z,97289.50
2018-06-13T00:03:47.619Z,97296.77
2018-06-13T00:06:16.925Z,97308.55
2018-06-13T00:08:46.259Z,97298.30
2018-06-13T00:11:15.502Z,97291.19
2018-06-13T00:13:44.803Z,97295.44
2018-06-13T00:16:14.100Z,97293.59
2018-06-13T00:18:43.468Z,97292.79
2018-06-13T00:21:12.740Z,97289.65
2018-06-13T00:23:41.958Z,97286.94
2018-06-13T00:26:11.216Z,97293.66
2018-06-13T00:28:40.427Z,97303.27
2018-06-13T00:31:09.649Z,97309.76
2018-06-13T00:33:38.847Z,97314.81
2018-06-13T00:36:08.050Z,97310.41
2018-06-13T00:38:37.259Z,97306.34
2018-06-13T00:41:06.853Z,97316.57
2018-06-13T00:43:36.070Z,97319.48
2018-06-13T00:46:05.260Z,97318.66
2018-06-13T00:48:34.501Z,97318.63
2018-06-13T00:51:03.759Z,97316.06
2018-06-13T00:53:32.962Z,97319.52
2018-06-13T00:56:19.219Z,97328.13
2018-06-13T00:58:48.446Z,97321.44
2018-06-13T01:01:17.638Z,97313.41
2018-06-13T01:03:46.874Z,97313.47
2018-06-13T01:06:16.132Z,97310.47
2018-06-13T01:08:45.416Z,97312.55
2018-06-13T01:11:14.671Z,97319.54
2018-06-13T01:13:43.926Z,97312.67
2018-06-13T01:16:13.194Z,97313.95
2018-06-13T01:18:42.214Z,97311.30
2018-06-13T01:21:11.424Z,97315.05
2018-06-13T01:23:40.683Z,97316.97
2018-06-13T01:26:09.897Z,97308.27
2018-06-13T01:28:39.166Z,97313.81
2018-06-13T01:31:08.451Z,97306.32
2018-06-13T01:33:37.707Z,97304.18
2018-06-13T01:36:06.952Z,97299.75
2018-06-13T01:38:36.187Z,97298.41
2018-06-13T01:41:05.424Z,97299.41
2018-06-13T01:43:34.686Z,97302.38
2018-06-13T01:46:03.970Z,97299.95
2018-06-13T01:48:33.232Z,97302.36
2018-06-13T01:51:02.547Z,97309.06
2018-06-13T01:53:31.807Z,97306.72
2018-06-13T01:56:01.052Z,97305.94
2018-06-13T01:58:30.295Z,97304.31
2018-06-13T02:00:59.546Z,97308.12
2018-06-13T02:03:28.807Z,97311.58
2018-06-13T02:05:58.127Z,97308.36
2018-06-13T02:08:27.385Z,97311.08
2018-06-13T02:10:56.629Z,97313.48
2018-06-13T02:13:25.877Z,97311.61
2018-06-13T02:15:54.933Z,97310.31
2018-06-13T02:18:24.211Z,97310.55
2018-06-13T02:20:53.426Z,97308.44
2018-06-13T02:23:22.674Z,97311.37
2018-06-13T02:25:51.915Z,97313.80
2018-06-13T02:28:21.186Z,97315.67
2018-06-13T02:30:50.438Z,97315.40
2018-06-13T02:33:19.696Z,97315.41
2018-06-13T02:35:48.948Z,97315.16
2018-06-13T02:38:18.155Z,97319.17
2018-06-13T02:40:47.427Z,97315.69
2018-06-13T02:43:16.767Z,97320.50
2018-06-13T02:45:46.014Z,97322.12
2018-06-13T02:48:15.284Z,97314.88
2018-06-13T02:50:44.530Z,97323.70
2018-06-13T02:53:13.781Z,97319.98
2018-06-13T02:55:43.023Z,97318.93
2018-06-13T02:58:12.310Z,97325.05
2018-06-13T03:00:41.545Z,97323.42
2018-06-13T03:03:10.836Z,97325.05
2018-06-13T03:05:40.096Z,97330.95
2018-06-13T03:08:09.318Z,97329.61
2018-06-13T03:10:38.542Z,97334.11
2018-06-13T03:13:07.762Z,97333.58
2018-06-13T03:15:37.009Z,97337.09
2018-06-13T03:18:06.435Z,97339.22
2018-06-13T03:20:35.687Z,97340.83
2018-06-13T03:23:05.061Z,97344.52
2018-06-13T03:25:34.295Z,97344.81
2018-06-13T03:28:03.508Z,97352.81
2018-06-13T03:30:32.741Z,97354.42
2018-06-13T03:33:01.729Z,97351.48
2018-06-13T03:35:30.994Z,97353.08
2018-06-13T03:38:00.267Z,97356.58
2018-06-13T03:40:29.525Z,97356.02
2018-06-13T03:42:58.772Z,97363.23
2018-06-13T03:45:28.011Z,97353.07
2018-06-13T03:47:57.271Z,97362.70
2018-06-13T03:50:26.493Z,97355.78
2018-06-13T03:52:55.743Z,97362.73
2018-06-13T03:55:24.940Z,97358.44
2018-06-13T03:57:54.173Z,97364.32
2018-06-13T04:00:23.166Z,97356.81
2018-06-13T04:02:52.153Z,97358.13
2018-06-13T04:05:21.362Z,97354.69
2018-06-13T04:07:50.616Z,97363.48
2018-06-13T04:10:19.836Z,97364.56
2018-06-13T04:12:49.084Z,97369.63
2018-06-13T04:15:18.311Z,97370.95
2018-06-13T04:17:47.493Z,97366.42
2018-06-13T04:20:16.629Z,97371.48
2018-06-13T04:22:45.850Z,97369.06
2018-06-13T04:25:15.067Z,97376.02
2018-06-13T04:27:44.313Z,97374.96
2018-06-13T04:30:13.547Z,97379.23
2018-06-13T04:32:42.827Z,97368.52
2018-06-13T04:35:12.097Z,97376.77
2018-06-13T04:37:41.340Z,97372.52
2018-06-13T04:40:10.543Z,97380.30
2018-06-13T04:42:39.767Z,97384.54
2018-06-13T04:45:08.969Z,97386.21
2018-06-13T04:47:38.183Z,97383.52
2018-06-13T04:50:07.169Z,97388.04
2018-06-13T04:52:36.161Z,97387.77
2018-06-13T04:55:05.356Z,97388.58
2018-06-13T04:57:34.584Z,97396.08
2018-06-13T05:00:03.586Z,97395.01
2018-06-13T05:02:32.830Z,97393.40
2018-06-13T05:05:02.087Z,97395.78
2018-06-13T05:07:31.381Z,97398.44
2018-06-13T05:10:00.639Z,97406.22
2018-06-13T05:12:30.066Z,97404.59
2018-06-13T05:14:59.453Z,97405.92
2018-06-13T05:17:28.732Z,97412.06
2018-06-13T05:19:57.954Z,97409.91
2018-06-13T05:22:27.169Z,97421.41
2018-06-13T05:24:56.449Z,97416.35
2018-06-13T05:27:25.666Z,97424.36
2018-06-13T05:29:54.975Z,97427.54
2018-06-13T05:32:24.194Z,97423.81
2018-06-13T05:34:53.441Z,97425.09
2018-06-13T05:37:22.670Z,97428.02
2018-06-13T05:39:51.919Z,97428.31
2018-06-13T05:42:21.137Z,97432.59
2018-06-13T05:44:50.386Z,97432.34
2018-06-13T05:47:19.610Z,97436.07
2018-06-13T05:49:48.870Z,97434.23
2018-06-13T05:52:18.107Z,97443.04
2018-06-13T05:54:47.371Z,97445.14
2018-06-13T05:57:16.635Z,97448.40
2018-06-13T05:59:45.916Z,97442.20
2018-06-13T06:02:15.222Z,97451.83
2018-06-13T06:04:44.538Z,97453.31
2018-06-13T06:07:13.818Z,97456.20
2018-06-13T06:09:43.084Z,97456.73
2018-06-13T06:12:12.328Z,97450.42
2018-06-13T06:14:41.705Z,97459.74
2018-06-13T06:17:10.670Z,97457.30
2018-06-13T06:19:39.931Z,97463.46
2018-06-13T06:22:09.134Z,97463.80
2018-06-13T06:24:38.390Z,97467.80
2018-06-13T06:27:07.631Z,97469.18
2018-06-13T06:29:36.889Z,97467.32
2018-06-13T06:32:06.111Z,97469.15
2018-06-13T06:34:35.371Z,97475.34
2018-06-13T06:37:04.566Z,97477.20
2018-06-13T06:39:33.804Z,97477.98
2018-06-13T06:42:03.034Z,97472.06
2018-06-13T06:44:32.258Z,97476.08
2018-06-13T06:47:01.469Z,97481.09
2018-06-13T06:49:30.721Z,97478.13
2018-06-13T06:52:00.040Z,97478.11
2018-06-13T06:54:29.296Z,97481.80
2018-06-13T06:56:58.538Z,97478.31
2018-06-13T06:59:27.826Z,97482.34
2018-06-13T07:01:57.086Z,97487.56
2018-06-13T07:04:26.428Z,97487.56
2018-06-13T07:06:55.751Z,97498.62
2018-06-13T07:09:24.986Z,97492.92
2018-06-13T07:11:54.176Z,97490.19
2018-06-13T07:14:23.439Z,97489.48
2018-06-13T07:16:52.733Z,97495.75
2018-06-13T07:19:21.962Z,97499.78
2018-06-13T07:21:51.175Z,97493.95
2018-06-13T07:24:20.432Z,97505.06
2018-06-13T07:26:49.672Z,97500.77
2018-06-13T07:29:18.922Z,97498.33
2018-06-13T07:31:48.142Z,97504.19
2018-06-13T07:34:17.309Z,97503.88
2018-06-13T07:36:46.485Z,97505.83
2018-06-13T07:39:15.697Z,97508.23
2018-06-13T07:41:44.909Z,97512.09
2018-06-13T07:44:14.176Z,97509.55
2018-06-13T07:46:43.437Z,97514.84
2018-06-13T07:49:12.693Z,97513.77
2018-06-13T07:51:41.958Z,97520.56
2018-06-13T07:54:11.220Z,97513.89
2018-06-13T07:56:40.491Z,97516.69
2018-06-13T07:59:09.700Z,97519.73
2018-06-13T08:01:38.988Z,97519.17
2018-06-13T08:04:08.128Z,97522.12
2018-06-13T08:06:37.405Z,97522.38
2018-06-13T08:09:08.525Z,97517.67
2018-06-13T08:11:37.851Z,97517.80
2018-06-13T08:14:07.119Z,97519.44
2018-06-13T08:16:36.333Z,97514.64
2018-06-13T08:19:05.600Z,97521.41
2018-06-13T08:21:34.831Z,97522.19
2018-06-13T08:24:04.119Z,97519.03
2018-06-13T08:26:33.367Z,97521.84
2018-06-13T08:29:02.595Z,97524.57
2018-06-13T08:31:31.837Z,97523.78
2018-06-13T08:34:01.080Z,97528.13
2018-06-13T08:36:30.334Z,97533.30
2018-06-13T08:38:59.584Z,97527.92
2018-06-13T08:41:28.870Z,97531.22
2018-06-13T08:43:58.134Z,97539.62
2018-06-13T08:46:27.375Z,97535.11
2018-06-13T08:48:56.638Z,97537.18
2018-06-13T08:51:25.874Z,97536.91
2018-06-13T08:53:55.111Z,97542.95
2018-06-13T08:56:24.394Z,97545.14
2018-06-13T08:58:53.681Z,97551.27
2018-06-13T09:01:22.887Z,97545.23
2018-06-13T09:03:52.181Z,97539.86
2018-06-13T09:06:21.387Z,97548.06
2018-06-13T09:08:50.736Z,97544.03
2018-06-13T09:11:19.942Z,97542.62
2018-06-13T09:13:49.244Z,97547.77
2018-06-13T09:16:18.530Z,97551.03
2018-06-13T09:18:47.748Z,97550.20
2018-06-13T09:21:16.982Z,97556.50
2018-06-13T09:23:46.277Z,97559.69
2018-06-13T09:26:15.518Z,97569.97
2018-06-13T09:28:44.843Z,97569.94
2018-06-13T09:31:14.104Z,97573.23
2018-06-13T09:33:43.337Z,97572.11
2018-06-13T09:36:12.564Z,97573.34
2018-06-13T09:38:41.833Z,97571.77
2018-06-13T09:41:11.097Z,97576.33
2018-06-13T09:43:40.364Z,97570.92
2018-06-13T09:46:12.015Z,97570.88
2018-06-13T09:48:38.880Z,97562.77
2018-06-13T09:51:08.114Z,97572.30
2018-06-13T09:53:37.310Z,97568.09
2018-06-13T09:56:06.764Z,97572.30
2018-06-13T09:59:44.774Z,97573.52
2018-06-13T10:02:18.366Z,97581.76
2018-06-13T10:04:48.426Z,97582.45
2018-06-13T10:07:17.687Z,97590.73
2018-06-13T10:09:46.923Z,97588.28
2018-06-13T10:12:16.184Z,97594.37
2018-06-13T10:14:45.480Z,97595.75
2018-06-13T10:17:14.737Z,97605.35
2018-06-13T10:19:43.978Z,97601.44
2018-06-13T10:22:13.007Z,97601.78
2018-06-13T10:24:42.289Z,97603.27
2018-06-13T10:27:16.703Z,97601.39
2018-06-13T10:29:45.994Z,97603.45
2018-06-13T10:32:15.222Z,97596.38
2018-06-13T10:34:44.500Z,97601.88
2018-06-13T10:37:13.735Z,97606.88
2018-06-13T10:39:43.014Z,97606.58
2018-06-13T10:42:12.276Z,97605.95
2018-06-13T10:44:41.585Z,97610.44
2018-06-13T10:47:10.872Z,97614.73
2018-06-13T10:49:40.143Z,97618.05
2018-06-13T10:52:09.362Z,97617.77
2018-06-13T10:54:38.594Z,97624.39
2018-06-13T10:57:07.860Z,97614.66
2018-06-13T10:59:37.196Z,97619.11
2018-06-13T11:02:06.571Z,97620.53
2018-06-13T11:04:35.887Z,97615.87
2018-06-13T11:07:05.062Z,97620.10
2018-06-13T11:09:34.308Z,97609.05
2018-06-13T11:12:03.566Z,97614.44
2018-06-13T11:14:32.803Z,97605.05
2018-06-13T11:17:02.119Z,97619.71
2018-06-13T11:19:31.343Z,97611.16
2018-06-13T11:22:00.572Z,97620.81
2018-06-13T11:24:29.821Z,97624.47
2018-06-13T11:26:59.074Z,97612.07
2018-06-13T11:29:28.363Z,97616.70
2018-06-13T11:31:57.605Z,97616.08
2018-06-13T11:34:26.811Z,97618.16
2018-06-13T11:36:56.024Z,97612.88
2018-06-13T11:39:25.227Z,97619.80
2018-06-13T11:41:54.203Z,97625.16
2018-06-13T11:44:23.449Z,97623.78
2018-06-13T11:46:52.727Z,97632.92
2018-06-13T11:49:21.951Z,97631.46
2018-06-13T11:51:51.219Z,97630.08
2018-06-13T11:54:20.458Z,97642.66
2018-06-13T11:56:49.658Z,97633.34
2018-06-13T11:59:18.664Z,97622.70
2018-06-13T12:01:47.913Z,97622.86
2018-06-13T12:04:17.132Z,97629.53
2018-06-13T12:06:46.371Z,97630.82
2018-06-13T12:09:15.648Z,97627.60
2018-06-13T12:11:44.999Z,97627.42
2018-06-13T12:14:14.298Z,97627.26
2018-06-13T12:16:43.625Z,97621.88
2018-06-13T12:19:12.939Z,97629.99
2018-06-13T12:21:42.242Z,97633.95
2018-06-13T12:24:11.518Z,97630.55
2018-06-13T12:26:40.807Z,97638.53
2018-06-13T12:29:10.024Z,97633.95
2018-06-13T12:31:39.540Z,97636.96
2018-06-13T12:34:08.872Z,97638.30
2018-06-13T12:36:38.066Z,97631.56
2018-06-13T12:39:10.466Z,97646.38
2018-06-13T12:41:39.693Z,97639.11
2018-06-13T12:44:08.935Z,97647.29
2018-06-13T12:46:38.235Z,97646.02
2018-06-13T12:49:07.491Z,97645.61
2018-06-13T12:51:36.773Z,97648.79
2018-06-13T12:54:06.041Z,97652.47
2018-06-13T12:56:35.260Z,97653.73
2018-06-13T12:59:04.560Z,97661.13
2018-06-13T13:01:33.567Z,97658.77
2018-06-13T13:04:02.849Z,97661.05
2018-06-13T13:06:32.180Z,97664.46
2018-06-13T13:09:01.476Z,97661.33
2018-06-13T13:11:30.765Z,97658.44
2018-06-13T13:14:00.088Z,97655.35
2018-06-13T13:16:29.246Z,97658.16
2018-06-13T13:18:58.438Z,97651.35
2018-06-13T13:21:27.625Z,97658.39
2018-06-13T13:23:57.075Z,97656.83
2018-06-13T13:26:26.217Z,97645.47
2018-06-13T13:28:55.460Z,97653.38
2018-06-13T13:31:24.673Z,97654.06
2018-06-13T13:33:53.876Z,97654.30
2018-06-13T13:36:23.094Z,97658.84
2018-06-13T13:38:52.339Z,97660.58
2018-06-13T13:41:21.550Z,97657.23
2018-06-13T13:43:50.834Z,97651.27
2018-06-13T13:46:20.043Z,97653.56
2018-06-13T13:48:49.300Z,97660.47
2018-06-13T13:51:18.536Z,97664.34
2018-06-13T13:53:47.836Z,97668.42
2018-06-13T13:56:17.063Z,97668.17
2018-06-13T13:58:46.374Z,97665.02
2018-06-13T14:01:15.631Z,97666.43
2018-06-13T14:03:44.859Z,97662.75
2018-06-13T14:06:14.128Z,97665.89
2018-06-13T14:08:43.364Z,97671.96
2018-06-13T14:11:12.582Z,97678.47
2018-06-13T14:13:41.838Z,97673.09
2018-06-13T14:16:11.091Z,97672.47
2018-06-13T14:18:40.293Z,97671.50
2018-06-13T14:21:09.474Z,97678.92
2018-06-13T14:23:38.671Z,97676.70
2018-06-13T14:26:07.945Z,97676.12
2018-06-13T14:28:37.109Z,97682.10
2018-06-13T14:31:06.333Z,97679.13
2018-06-13T14:33:35.546Z,97677.52
2018-06-13T14:36:04.805Z,97680.30
2018-06-13T14:38:34.063Z,97683.22
2018-06-13T14:41:03.359Z,97682.70
2018-06-13T14:43:32.632Z,97680.00
2018-06-13T14:46:01.952Z,97682.19
2018-06-13T14:48:31.407Z,97682.81
2018-06-13T14:51:00.739Z,97684.86
2018-06-13T14:53:30.660Z,97682.48
2018-06-13T14:56:05.198Z,97678.02
2018-06-13T14:58:34.450Z,97680.48
2018-06-13T15:01:03.819Z,97683.39
2018-06-13T15:03:33.245Z,97689.25
2018-06-13T15:06:02.661Z,97686.02
2018-06-13T15:08:32.107Z,97691.14
2018-06-13T15:11:01.419Z,97690.58
2018-06-13T15:13:30.909Z,97689.62
2018-06-13T15:16:00.234Z,97689.95
2018-06-13T15:18:29.539Z,97690.32
2018-06-13T15:20:59.107Z,97697.30
2018-06-13T15:23:28.587Z,97696.14
2018-06-13T15:25:58.349Z,97694.56
2018-06-13T15:28:27.761Z,97701.09
2018-06-13T15:30:57.280Z,97712.11
2018-06-13T15:33:26.670Z,97702.65
2018-06-13T15:35:56.151Z,97704.16
2018-06-13T15:38:25.638Z,97701.73
2018-06-13T15:40:55.055Z,97705.98
2018-06-13T15:43:24.386Z,97707.64
2018-06-13T15:45:53.865Z,97712.02
2018-06-13T15:48:23.318Z,97707.85
2018-06-13T15:50:52.797Z,97710.27
2018-06-13T15:53:22.137Z,97718.51
2018-06-13T15:55:51.455Z,97712.70
2018-06-13T15:58:20.837Z,97707.78
2018-06-13T16:00:50.273Z,97716.30
2018-06-13T16:03:19.618Z,97708.46
2018-06-13T16:05:48.975Z,97715.80
2018-06-13T16:08:18.443Z,97719.44
2018-06-13T16:10:48.865Z,97712.64
2018-06-13T16:13:18.366Z,97721.84
2018-06-13T16:15:48.126Z,97720.67
2018-06-13T16:18:17.787Z,97726.50
2018-06-13T16:20:47.387Z,97730.09
2018-06-13T16:23:16.744Z,97731.07
2018-06-13T16:25:46.181Z,97733.41
2018-06-13T16:28:15.708Z,97723.63
2018-06-13T16:30:45.407Z,97734.88
2018-06-13T16:33:14.989Z,97737.86
2018-06-13T16:35:44.387Z,97735.47
2018-06-13T16:38:13.804Z,97738.81
2018-06-13T16:40:43.299Z,97742.81
2018-06-13T16:43:12.695Z,97744.24
2018-06-13T16:45:42.017Z,97735.64
2018-06-13T16:48:11.503Z,97738.42
2018-06-13T16:51:51.917Z,97747.78
2018-06-13T16:54:38.067Z,97747.68
2018-06-13T16:57:07.421Z,97755.66
2018-06-13T16:59:36.756Z,97757.50
2018-06-13T17:02:06.129Z,97760.80
2018-06-13T17:04:35.531Z,97760.00
2018-06-13T17:07:05.018Z,97770.84
2018-06-13T17:09:34.381Z,97762.59
2018-06-13T17:12:03.800Z,97766.16
2018-06-13T17:14:33.349Z,97769.88
2018-06-13T17:17:02.729Z,97777.60
2018-06-13T17:19:32.254Z,97778.74
2018-06-13T17:22:01.663Z,97787.19
2018-06-13T17:24:31.074Z,97788.14
2018-06-13T17:27:00.360Z,97789.84
2018-06-13T17:29:29.742Z,97794.23
2018-06-13T17:31:59.011Z,97801.82
2018-06-13T17:34:28.407Z,97794.62
2018-06-13T17:36:57.743Z,97794.28
2018-06-13T17:39:27.177Z,97797.55
2018-06-13T17:41:56.562Z,97796.28
2018-06-13T17:44:26.020Z,97792.53
2018-06-13T17:46:55.599Z,97793.88
2018-06-13T17:49:25.204Z,97792.80
2018-06-13T17:51:54.547Z,97791.46
2018-06-13T17:54:23.908Z,97793.84
2018-06-13T17:56:53.307Z,97792.31
2018-06-13T17:59:22.738Z,97800.63
2018-06-13T18:01:52.072Z,97800.38
2018-06-13T18:04:21.626Z,97806.04
2018-06-13T18:06:51.039Z,97798.22
2018-06-13T18:09:20.335Z,97805.19
2018-06-13T18:11:52.973Z,97806.88
2018-06-13T18:14:22.352Z,97811.95
2018-06-13T18:16:51.752Z,97817.02
2018-06-13T18:19:21.218Z,97814.37
2018-06-13T18:21:50.615Z,97819.73
2018-06-13T18:24:20.170Z,97812.22
2018-06-13T18:26:49.596Z,97821.38
2018-06-13T18:29:19.173Z,97821.63
2018-06-13T18:31:48.463Z,97822.20
2018-06-13T18:34:17.920Z,97825.16
2018-06-13T18:36:47.253Z,97820.38
2018-06-13T18:39:16.672Z,97820.36
2018-06-13T18:41:46.014Z,97830.52
2018-06-13T18:44:15.514Z,97826.24
2018-06-13T18:46:44.590Z,97820.13
2018-06-13T18:49:13.868Z,97827.61
2018-06-13T18:51:43.609Z,97833.25
2018-06-13T18:54:12.933Z,97832.20
2018-06-13T18:56:42.268Z,97839.15
2018-06-13T18:59:11.708Z,97836.50
2018-06-13T19:01:41.018Z,97835.95
2018-06-13T19:04:10.506Z,97838.91
2018-06-13T19:06:39.807Z,97846.66
2018-06-13T19:09:10.763Z,97845.36
2018-06-13T19:11:41.120Z,97853.10
2018-06-13T19:14:11.110Z,97859.82
2018-06-13T19:16:40.748Z,97857.67
2018-06-13T19:19:09.993Z,97866.00
2018-06-13T19:21:39.076Z,97872.70
2018-06-13T19:24:08.530Z,97872.41
2018-06-13T19:26:37.911Z,97876.97
2018-06-13T19:29:07.237Z,97879.92
2018-06-13T19:31:36.662Z,97882.61
2018-06-13T19:34:05.976Z,97879.64
2018-06-13T19:36:35.218Z,97885.83
2018-06-13T19:39:06.132Z,97894.41
2018-06-13T19:41:35.500Z,97891.19
2018-06-13T19:44:04.799Z,97893.60
2018-06-13T19:46:34.058Z,97901.37
2018-06-13T19:49:03.290Z,97907.50
2018-06-13T19:51:32.509Z,97913.67
2018-06-13T19:54:06.692Z,97915.00
2018-06-13T19:56:35.951Z,97915.28
2018-06-13T19:59:05.195Z,97912.35
2018-06-13T20:01:34.471Z,97915.80
2018-06-13T20:04:09.076Z,97917.70
2018-06-13T20:06:39.203Z,97916.62
2018-06-13T20:09:11.558Z,97924.66
2018-06-13T20:11:41.094Z,97926.25
2018-06-13T20:14:15.666Z,97930.55
2018-06-13T20:16:53.102Z,97927.31
2018-06-13T20:19:27.394Z,97925.72
2018-06-13T20:21:57.879Z,97921.42
2018-06-13T20:24:27.223Z,97929.73
2018-06-13T20:27:01.711Z,97932.67
2018-06-13T20:29:36.105Z,97943.39
2018-06-13T20:32:05.387Z,97939.64
2018-06-13T20:34:34.693Z,97940.44
2018-06-13T20:37:04.065Z,97932.69
2018-06-13T20:39:33.326Z,97926.26
2018-06-13T20:42:02.615Z,97927.27
2018-06-13T20:44:31.897Z,97936.15
2018-06-13T20:47:01.256Z,97937.51
2018-06-13T20:49:30.531Z,97944.41
2018-06-13T20:51:59.818Z,97947.11
2018-06-13T20:54:29.114Z,97945.75
2018-06-13T20:56:58.394Z,97940.66
2018-06-13T20:59:27.683Z,97938.00
2018-06-13T21:01:56.919Z,97936.92
2018-06-13T21:04:26.185Z,97933.16
2018-06-13T21:06:55.492Z,97931.02
2018-06-13T21:09:24.707Z,97935.56
2018-06-13T21:14:32.567Z,97935.81
2018-06-13T21:17:01.909Z,97932.34
2018-06-13T21:19:31.166Z,97944.36
2018-06-13T21:22:00.567Z,97944.38
2018-06-13T21:24:30.017Z,97948.95
2018-06-13T21:26:59.290Z,97951.63
2018-06-13T21:29:28.514Z,97951.34
2018-06-13T21:31:57.738Z,97945.45
2018-06-13T21:34:26.966Z,97947.86
2018-06-13T21:36:56.191Z,97948.42
2018-06-13T21:39:25.411Z,97939.28
2018-06-13T21:41:54.651Z,97931.00
2018-06-13T21:44:23.992Z,97930.98
2018-06-13T21:46:53.258Z,97932.62
2018-06-13T21:49:22.539Z,97931.25
2018-06-13T21:51:51.884Z,97930.47
2018-06-13T21:54:21.117Z,97932.05
2018-06-13T21:56:50.354Z,97930.20
2018-06-13T21:59:19.649Z,97939.27
2018-06-13T22:01:48.942Z,97931.26
2018-06-13T22:04:18.271Z,97932.88
2018-06-13T22:06:47.610Z,97941.44
2018-06-13T22:09:16.894Z,97942.49
2018-06-13T22:11:51.399Z,97936.33
2018-06-13T22:14:21.100Z,97935.25
2018-06-13T22:16:50.993Z,97928.81
2018-06-13T22:19:20.836Z,97928.56
2018-06-13T22:21:50.094Z,97930.16
2018-06-13T22:24:19.414Z,97943.27
2018-06-13T22:26:48.714Z,97929.63
2018-06-13T22:29:17.981Z,97931.22
2018-06-13T22:31:47.316Z,97928.52
2018-06-13T22:34:16.738Z,97928.52
2018-06-13T22:36:46.056Z,97928.00
2018-06-13T22:39:15.383Z,97933.07
2018-06-13T22:41:44.646Z,97937.89
2018-06-13T22:44:13.923Z,97934.94
2018-06-13T22:46:43.192Z,97935.47
2018-06-13T22:49:12.447Z,97931.73
2018-06-13T22:51:41.659Z,97937.08
2018-06-13T22:54:10.891Z,97933.63
2018-06-13T22:56:40.144Z,97929.03
2018-06-13T22:59:09.398Z,97930.38
2018-06-13T23:01:38.627Z,97938.42
2018-06-13T23:04:07.884Z,97934.94
2018-06-13T23:06:37.097Z,97945.64
2018-06-13T23:09:08.311Z,97942.41
2018-06-13T23:11:37.518Z,97937.89
2018-06-13T23:14:06.747Z,97941.85
2018-06-13T23:16:36.037Z,97941.05
2018-06-13T23:19:05.030Z,97934.91
2018-06-13T23:21:34.310Z,97941.34
2018-06-13T23:24:03.544Z,97941.88
2018-06-13T23:26:32.799Z,97933.58
2018-06-13T23:29:02.027Z,97935.77
2018-06-13T23:31:31.362Z,97935.77
2018-06-13T23:34:00.656Z,97929.91
2018-06-13T23:36:29.997Z,97924.16
2018-06-13T23:38:59.250Z,97916.14
2018-06-13T23:41:28.398Z,97915.30
2018-06-13T23:43:57.600Z,97915.83
2018-06-13T23:46:26.821Z,97916.67
2018-06-13T23:48:56.043Z,97910.81
2018-06-13T23:51:25.271Z,97912.16
2018-06-13T23:53:54.502Z,97909.45
2018-06-13T23:56:23.698Z,97904.38
2018-06-13T23:58:52.919Z,97905.19
